Time;durP1;ratioP1;P1;durP2;ratioP2;P2;SDS_P1;SDS_P2;PMS_P1;PMS_P2;Temp;Humidity;BMP_temperature;BMP_pressure;BME280_temperature;BME280_humidity;BME280_pressure;Samples;Min_cycle;Max_cycle;Signal;HPM_P1;HPM_P2
2021/09/09 00:00:44;;;;;;;21.40;19.02;;;;;;;21.53;53.83;95218.75;5007954;28;20543;-71
2021/09/09 00:03:10;;;;;;;22.88;20.63;;;;;;;21.62;53.89;95226.56;5008700;28;20034;-70
2021/09/09 00:05:35;;;;;;;24.15;21.70;;;;;;;21.66;53.96;95221.97;5008794;28;20040;-71
2021/09/09 00:08:01;;;;;;;22.90;20.60;;;;;;;21.73;53.91;95229.38;5008695;28;20037;-71
2021/09/09 00:10:27;;;;;;;23.75;21.40;;;;;;;21.72;53.87;95230.53;5010262;28;20022;-70
2021/09/09 00:12:53;;;;;;;28.10;25.08;;;;;;;21.73;53.87;95224.72;5008648;28;20064;-74
2021/09/09 00:15:18;;;;;;;25.42;22.23;;;;;;;21.58;53.64;95200.59;5008165;28;20125;-71
2021/09/09 00:17:44;;;;;;;30.52;24.10;;;;;;;21.77;53.79;95228.25;5008151;28;20034;-71
2021/09/09 00:20:11;;;;;;;24.33;21.92;;;;;;;21.78;53.88;95231.72;5008001;28;20121;-71
2021/09/09 00:22:36;;;;;;;23.50;21.25;;;;;;;21.65;53.93;95209.59;5010601;28;20054;-71
2021/09/09 00:25:02;;;;;;;30.17;24.60;;;;;;;21.73;53.73;95221.25;5008792;28;20093;-71
2021/09/09 00:27:28;;;;;;;26.45;23.65;;;;;;;21.73;53.47;95216.59;4991137;28;20206;-71
2021/09/09 00:29:53;;;;;;;28.63;24.58;;;;;;;21.74;53.44;95222.78;5007667;28;20407;-71
2021/09/09 00:32:18;;;;;;;24.60;22.15;;;;;;;21.75;53.55;95230.56;5008602;28;20068;-71
2021/09/09 00:34:44;;;;;;;26.92;24.05;;;;;;;21.71;53.57;95227.03;5008386;28;20113;-71
2021/09/09 00:37:09;;;;;;;28.52;25.50;;;;;;;21.69;53.46;95231.25;5012674;28;20044;-72
2021/09/09 00:39:34;;;;;;;31.35;24.70;;;;;;;21.65;53.58;95225.03;5012029;28;20042;-71
2021/09/09 00:42:00;;;;;;;28.08;24.27;;;;;;;21.69;53.43;95223.13;5012499;28;20118;-71
2021/09/09 00:44:27;;;;;;;29.02;23.92;;;;;;;21.66;53.40;95224.69;5011988;28;21183;-71
2021/09/09 00:47:06;;;;;;;22.00;19.90;;;;;;;21.61;53.32;95218.81;5012357;28;20057;-71
2021/09/09 00:49:33;;;;;;;24.10;21.42;;;;;;;21.59;53.29;95219.19;5013771;28;20077;-71
2021/09/09 00:51:58;;;;;;;23.17;20.83;;;;;;;21.63;53.33;95228.13;4994614;28;20038;-71
2021/09/09 00:54:24;;;;;;;27.50;24.50;;;;;;;21.63;53.37;95233.53;5012283;28;20042;-71
2021/09/09 00:56:50;;;;;;;28.90;25.85;;;;;;;21.50;53.19;95213.31;5012340;28;20030;-71
2021/09/09 00:59:17;;;;;;;26.88;20.05;;;;;;;21.65;53.29;95235.84;5011392;28;20505;-71
2021/09/09 01:01:43;;;;;;;27.02;23.45;;;;;;;21.53;53.36;95226.84;5012124;28;20096;-71
2021/09/09 01:04:08;;;;;;;25.33;22.70;;;;;;;21.63;53.29;95238.16;5014277;28;20483;-71
2021/09/09 01:06:33;;;;;;;38.15;27.23;;;;;;;21.53;53.39;95220.66;5012474;28;20033;-71
2021/09/09 01:09:01;;;;;;;33.78;26.10;;;;;;;21.61;53.49;95230.44;5011975;28;20074;-71
2021/09/09 01:11:26;;;;;;;33.42;25.67;;;;;;;21.68;53.50;95230.47;5012111;28;20038;-71
2021/09/09 01:13:52;;;;;;;23.25;20.88;;;;;;;21.74;53.40;95228.97;4994421;28;20033;-71
2021/09/09 01:16:19;;;;;;;29.13;24.30;;;;;;;21.75;53.23;95222.44;4995988;28;20021;-71
2021/09/09 01:18:44;;;;;;;25.58;22.92;;;;;;;21.82;53.05;95218.25;5011624;28;20597;-71
2021/09/09 01:21:10;;;;;;;22.42;20.20;;;;;;;21.95;52.80;95224.91;5012162;28;20034;-71
2021/09/09 01:23:36;;;;;;;25.33;22.80;;;;;;;21.89;52.71;95212.88;5011927;28;20136;-71
2021/09/09 01:26:03;;;;;;;24.50;22.13;;;;;;;21.91;52.59;95224.13;5011745;28;20046;-71
2021/09/09 01:28:29;;;;;;;25.58;22.98;;;;;;;21.96;52.51;95223.78;5013311;28;20529;-71
2021/09/09 01:30:54;;;;;;;36.50;22.88;;;;;;;21.93;52.45;95228.00;4993307;28;20034;-71
2021/09/09 01:33:19;;;;;;;25.42;22.92;;;;;;;21.89;52.34;95224.47;4994242;28;20050;-71
2021/09/09 01:35:45;;;;;;;22.80;19.92;;;;;;;21.80;52.52;95221.28;5011542;28;20042;-71
2021/09/09 01:38:21;;;;;;;22.70;20.58;;;;;;;21.84;52.40;95234.88;5011603;28;20041;-71
2021/09/09 01:40:46;;;;;;;24.13;21.70;;;;;;;21.75;52.47;95224.34;5011066;28;20018;-71
2021/09/09 01:43:11;;;;;;;34.13;26.00;;;;;;;21.72;52.63;95225.88;5013427;28;20045;-71
2021/09/09 01:45:37;;;;;;;23.48;21.05;;;;;;;21.61;52.94;95219.59;5011083;28;20041;-71
2021/09/09 01:48:02;;;;;;;28.65;25.58;;;;;;;21.61;53.04;95238.53;5010855;28;20122;-71
2021/09/09 01:50:28;;;;;;;25.70;23.02;;;;;;;21.60;52.93;95233.47;4993393;28;20042;-71
2021/09/09 01:52:53;;;;;;;27.13;24.33;;;;;;;21.41;53.11;95202.00;5011479;28;20025;-71
2021/09/09 01:55:19;;;;;;;26.52;23.73;;;;;;;21.54;53.14;95220.28;5013458;28;20493;-72
2021/09/09 01:57:44;;;;;;;30.23;23.85;;;;;;;21.48;53.35;95229.13;5011452;28;20133;-71
2021/09/09 02:00:10;;;;;;;30.70;25.98;;;;;;;21.47;53.28;95219.44;5010156;28;20022;-71
2021/09/09 02:02:35;;;;;;;24.52;21.98;;;;;;;21.45;53.47;95227.19;5010807;28;20038;-71
2021/09/09 02:05:01;;;;;;;32.42;26.23;;;;;;;21.23;53.39;95197.13;5010889;28;20084;-71
2021/09/09 02:07:26;;;;;;;26.52;23.33;;;;;;;21.37;53.40;95225.53;4995178;28;20022;-72
2021/09/09 02:09:51;;;;;;;31.42;26.48;;;;;;;21.36;53.31;95226.69;5010484;28;20049;-71
2021/09/09 02:12:17;;;;;;;28.45;25.42;;;;;;;21.36;53.39;95238.28;5010787;28;20486;-71
2021/09/09 02:14:42;;;;;;;22.25;19.98;;;;;;;21.29;53.41;95230.84;4992492;28;20046;-71
2021/09/09 02:17:09;;;;;;;29.25;24.70;;;;;;;21.16;53.55;95212.53;5010311;28;20045;-71
2021/09/09 02:19:34;;;;;;;22.17;19.90;;;;;;;21.28;53.37;95233.91;4994470;28;20018;-72
2021/09/09 02:22:00;;;;;;;24.45;21.73;;;;;;;21.24;53.67;95233.88;4992600;28;20052;-71
2021/09/09 02:24:25;;;;;;;27.27;24.48;;;;;;;21.09;53.46;95209.72;5010417;28;20061;-71
2021/09/09 02:26:51;;;;;;;21.38;19.48;;;;;;;21.13;53.43;95205.13;5010324;28;20038;-71
2021/09/09 02:29:16;;;;;;;30.75;26.27;;;;;;;21.24;53.32;95224.97;4992281;28;20037;-71
2021/09/09 02:31:41;;;;;;;26.13;23.40;;;;;;;21.13;53.16;95210.56;5009771;28;20022;-71
2021/09/09 02:34:07;;;;;;;22.48;20.38;;;;;;;21.08;53.29;95211.66;5012058;28;20493;-71
2021/09/09 02:36:32;;;;;;;28.13;23.20;;;;;;;21.09;53.12;95215.94;5010360;28;20149;-71
2021/09/09 02:38:59;;;;;;;20.55;18.65;;;;;;;21.19;53.25;95223.41;4992001;28;20046;-71
2021/09/09 02:41:25;;;;;;;25.45;22.52;;;;;;;21.08;53.30;95219.00;5010079;28;20411;-71
2021/09/09 02:43:51;;;;;;;23.45;21.15;;;;;;;21.12;53.23;95220.59;5010198;28;20026;-71
2021/09/09 02:46:16;;;;;;;25.73;22.98;;;;;;;21.15;53.12;95219.09;5011626;28;20018;-71
2021/09/09 02:48:41;;;;;;;22.65;20.50;;;;;;;21.06;53.39;95215.91;5009585;28;20042;-71
2021/09/09 02:51:06;;;;;;;25.20;21.65;;;;;;;21.14;53.43;95215.63;5010224;28;20517;-71
2021/09/09 02:53:32;;;;;;;27.80;22.45;;;;;;;21.04;53.48;95200.03;5009989;28;20038;-71
2021/09/09 02:55:57;;;;;;;20.35;18.52;;;;;;;20.98;53.46;95183.34;5010284;28;20533;-71
2021/09/09 02:58:22;;;;;;;22.35;20.05;;;;;;;21.05;53.49;95203.53;5011201;28;20460;-71
2021/09/09 03:00:48;;;;;;;22.92;20.55;;;;;;;21.06;53.64;95199.66;5007567;28;20044;-71
2021/09/09 03:03:13;;;;;;;18.17;16.58;;;;;;;21.10;53.37;95203.97;5009923;28;20509;-71
2021/09/09 03:05:38;;;;;;;19.70;17.67;;;;;;;21.26;53.66;95220.75;4992391;28;20033;-71
2021/09/09 03:08:04;;;;;;;18.08;16.58;;;;;;;21.31;53.20;95216.19;5009862;28;20099;-71
2021/09/09 03:10:30;;;;;;;15.57;14.27;;;;;;;21.32;53.23;95213.13;4993552;28;20109;-71
2021/09/09 03:12:55;;;;;;;17.88;16.45;;;;;;;21.26;53.03;95198.34;4992083;28;20045;-71
2021/09/09 03:15:20;;;;;;;17.10;15.55;;;;;;;21.22;53.04;95184.78;4991528;28;20064;-71
2021/09/09 03:17:46;;;;;;;16.77;15.00;;;;;;;21.39;53.10;95212.41;5009466;28;20034;-73
2021/09/09 03:20:12;;;;;;;16.95;15.40;;;;;;;21.40;53.01;95213.97;5009068;28;20562;-71
2021/09/09 03:22:37;;;;;;;17.33;15.77;;;;;;;21.38;53.07;95213.56;4993466;28;20029;-71
2021/09/09 03:25:03;;;;;;;16.88;15.27;;;;;;;21.31;52.91;95195.34;5009549;28;20407;-71
2021/09/09 03:27:29;;;;;;;18.50;16.80;;;;;;;21.32;52.87;95198.81;5009211;28;20042;-70
2021/09/09 03:29:54;;;;;;;16.05;14.70;;;;;;;21.28;52.87;95201.44;5008283;28;20037;-72
2021/09/09 03:32:19;;;;;;;17.98;16.27;;;;;;;21.08;53.05;95165.69;5008040;28;20046;-71
2021/09/09 03:34:45;;;;;;;15.48;14.10;;;;;;;21.15;53.26;95187.41;4991585;28;20030;-71
2021/09/09 03:37:10;;;;;;;17.80;16.05;;;;;;;21.34;53.01;95193.78;5011552;28;20460;-71
2021/09/09 03:39:35;;;;;;;17.30;15.80;;;;;;;21.47;52.85;95201.28;5008673;28;20030;-71
2021/09/09 03:42:01;;;;;;;14.90;13.70;;;;;;;21.32;53.08;95188.75;5009124;28;20029;-71
2021/09/09 03:44:26;;;;;;;15.70;14.40;;;;;;;20.94;53.92;95190.66;5009023;28;20034;-71
2021/09/09 03:46:51;;;;;;;14.95;13.73;;;;;;;21.05;53.86;95184.59;5008430;28;20053;-72
2021/09/09 03:49:17;;;;;;;14.75;13.25;;;;;;;21.11;53.80;95167.66;5010274;28;20026;-71
2021/09/09 03:51:42;;;;;;;14.63;13.38;;;;;;;21.31;53.36;95189.16;5008943;28;20099;-71
2021/09/09 03:54:07;;;;;;;16.10;14.45;;;;;;;21.44;53.00;95195.84;4991391;28;20053;-71
2021/09/09 03:56:33;;;;;;;17.27;15.77;;;;;;;21.30;52.89;95161.31;5009157;28;20044;-71
2021/09/09 03:58:59;;;;;;;16.00;14.60;;;;;;;21.34;52.76;95169.44;4990834;28;20025;-71
2021/09/09 04:01:24;;;;;;;17.00;15.38;;;;;;;21.49;52.75;95195.50;5010221;28;20478;-71
2021/09/09 04:03:49;;;;;;;17.05;15.50;;;;;;;21.41;52.67;95180.34;5009027;28;20046;-71
2021/09/09 04:06:15;;;;;;;15.73;14.30;;;;;;;21.47;52.70;95193.16;5008925;28;20095;-67
2021/09/09 04:08:40;;;;;;;16.88;15.13;;;;;;;21.41;52.75;95183.84;4991025;28;20066;-71
2021/09/09 04:11:05;;;;;;;17.63;16.02;;;;;;;21.48;52.45;95208.25;5009212;28;20038;-68
2021/09/09 04:13:31;;;;;;;16.10;14.63;;;;;;;21.37;52.55;95184.94;5010823;28;20121;-67
2021/09/09 04:15:56;;;;;;;15.15;13.48;;;;;;;21.41;52.53;95193.88;5008459;28;20046;-67
2021/09/09 04:18:21;;;;;;;14.95;13.75;;;;;;;21.18;52.66;95178.53;5008495;28;20042;-68
2021/09/09 04:20:47;;;;;;;14.18;13.02;;;;;;;21.17;52.86;95195.16;5008242;28;20042;-67
2021/09/09 04:23:12;;;;;;;14.50;13.10;;;;;;;21.17;52.87;95200.56;5008653;28;20038;-68
2021/09/09 04:25:37;;;;;;;14.18;12.75;;;;;;;21.11;53.13;95191.22;5010576;28;20028;-67
2021/09/09 04:28:03;;;;;;;14.82;13.73;;;;;;;21.18;52.96;95197.47;5008436;28;20046;-68
2021/09/09 04:30:28;;;;;;;16.63;15.10;;;;;;;21.21;52.70;95209.50;5007906;28;20034;-70
2021/09/09 04:32:53;;;;;;;14.85;13.55;;;;;;;21.18;52.88;95216.41;5008385;28;20128;-70
2021/09/09 04:35:19;;;;;;;16.45;14.98;;;;;;;21.06;52.85;95197.72;5008578;28;20188;-71
2021/09/09 04:37:44;;;;;;;15.18;13.90;;;;;;;21.10;52.81;95206.69;5008747;28;20034;-86
2021/09/09 04:40:10;;;;;;;17.80;15.90;;;;;;;20.99;52.89;95200.38;5010429;28;20072;-76
2021/09/09 04:42:35;;;;;;;19.10;17.30;;;;;;;20.87;52.68;95177.03;4992495;28;20054;-80
2021/09/09 04:45:01;;;;;;;15.88;14.57;;;;;;;21.09;52.74;95212.44;5008569;28;20111;-69
2021/09/09 04:47:26;;;;;;;16.10;14.45;;;;;;;20.97;52.90;95197.25;5007742;28;20507;-72
2021/09/09 04:49:51;;;;;;;17.05;15.52;;;;;;;21.03;53.07;95211.97;4990223;28;20022;-72
2021/09/09 04:52:17;;;;;;;20.17;18.05;;;;;;;20.97;52.64;95208.84;5010700;28;20029;-73
2021/09/09 04:54:42;;;;;;;16.42;14.95;;;;;;;20.96;52.75;95191.06;5008677;28;20403;-71
2021/09/09 04:57:07;;;;;;;15.02;13.70;;;;;;;21.10;52.80;95217.50;5008585;28;20565;-69
2021/09/09 04:59:33;;;;;;;16.70;15.27;;;;;;;21.12;52.51;95215.19;5008189;28;20492;-71
2021/09/09 05:01:58;;;;;;;14.57;13.35;;;;;;;21.10;52.56;95206.69;4990218;28;20456;-71
2021/09/09 05:04:23;;;;;;;16.20;14.68;;;;;;;21.05;52.31;95190.78;5010229;28;20034;-72
2021/09/09 05:06:49;;;;;;;14.27;13.13;;;;;;;21.02;52.52;95194.97;4990921;28;20073;-80
2021/09/09 05:09:14;;;;;;;14.85;13.55;;;;;;;21.26;52.31;95215.34;5007724;28;20065;-74
2021/09/09 05:11:39;;;;;;;14.25;13.15;;;;;;;21.13;52.20;95195.09;5008560;28;20084;-73
2021/09/09 05:14:05;;;;;;;16.38;14.75;;;;;;;21.14;52.14;95183.16;5008234;28;20494;-72
2021/09/09 05:16:30;;;;;;;15.18;13.85;;;;;;;21.19;52.17;95182.03;5009892;28;20041;-72
2021/09/09 05:18:55;;;;;;;16.05;14.77;;;;;;;21.32;52.02;95199.59;4989688;28;20397;-73
2021/09/09 05:21:21;;;;;;;15.75;14.35;;;;;;;21.35;52.14;95193.44;4990524;28;20042;-73
2021/09/09 05:23:46;;;;;;;14.80;13.60;;;;;;;21.50;51.70;95213.31;5010810;28;20103;-73
2021/09/09 05:26:12;;;;;;;14.10;12.82;;;;;;;21.46;51.56;95190.84;5011727;28;20454;-73
2021/09/09 05:28:37;;;;;;;12.60;11.27;;;;;;;21.53;51.49;95204.44;4995910;28;20033;-75
2021/09/09 05:31:02;;;;;;;14.07;12.27;;;;;;;21.63;51.38;95216.50;5011265;28;20117;-77
2021/09/09 05:33:28;;;;;;;12.25;11.25;;;;;;;21.71;51.49;95208.09;5011471;28;20045;-74
2021/09/09 05:35:53;;;;;;;14.02;12.60;;;;;;;21.61;51.41;95187.13;5011617;28;20057;-73
2021/09/09 05:38:18;;;;;;;14.48;12.68;;;;;;;21.86;51.15;95219.06;4993922;28;20052;-75
2021/09/09 05:40:43;;;;;;;13.02;11.85;;;;;;;21.90;50.90;95204.34;5011037;28;20468;-75
2021/09/09 05:43:09;;;;;;;13.77;12.48;;;;;;;22.06;51.05;95223.84;5013658;28;20026;-72
2021/09/09 05:45:34;;;;;;;12.88;11.75;;;;;;;22.05;50.81;95203.31;4993215;28;20485;-71
2021/09/09 05:48:00;;;;;;;12.98;11.98;;;;;;;22.18;50.47;95208.47;5011013;28;20030;-72
2021/09/09 05:50:25;;;;;;;12.15;10.95;;;;;;;22.25;50.49;95217.44;5010527;28;20201;-71
2021/09/09 05:52:50;;;;;;;13.00;11.80;;;;;;;22.37;49.96;95216.38;4993394;28;20038;-73
2021/09/09 05:55:16;;;;;;;13.10;12.00;;;;;;;22.49;49.90;95220.69;5013173;28;20026;-73
2021/09/09 05:57:41;;;;;;;13.25;12.05;;;;;;;22.61;49.76;95225.78;5011194;28;20048;-73
2021/09/09 06:00:09;;;;;;;11.95;10.95;;;;;;;22.70;49.48;95223.50;4993184;28;20077;-72
2021/09/09 06:02:41;;;;;;;10.95;10.05;;;;;;;22.81;49.44;95218.13;4992425;28;20100;-71
2021/09/09 06:05:07;;;;;;;12.00;11.00;;;;;;;22.91;49.20;95216.66;4993120;28;20048;-71
2021/09/09 06:07:33;;;;;;;10.80;9.90;;;;;;;22.83;48.33;95203.06;5012635;28;20408;-70
2021/09/09 06:09:58;;;;;;;11.20;10.02;;;;;;;22.96;48.80;95217.06;4992629;28;20396;-71
2021/09/09 06:12:26;;;;;;;11.60;10.10;;;;;;;23.15;48.85;95215.22;5010210;28;20038;-72
2021/09/09 06:14:55;;;;;;;11.35;10.45;;;;;;;23.32;48.62;95226.13;5011035;28;20030;-72
2021/09/09 06:17:20;;;;;;;10.82;9.73;;;;;;;23.40;48.24;95216.06;5009823;28;20141;-71
2021/09/09 06:19:46;;;;;;;9.85;8.95;;;;;;;23.50;47.96;95218.03;4992539;28;20113;-72
2021/09/09 06:22:11;;;;;;;9.68;8.68;;;;;;;23.57;47.59;95217.25;5012755;28;20026;-72
2021/09/09 06:24:37;;;;;;;9.98;9.18;;;;;;;23.68;47.34;95220.78;5010702;28;20049;-74
2021/09/09 06:27:02;;;;;;;9.95;9.18;;;;;;;23.83;47.59;95227.00;5010605;28;20423;-72
2021/09/09 06:29:28;;;;;;;9.27;8.48;;;;;;;23.86;47.41;95218.88;5009904;28;20038;-73
2021/09/09 06:31:53;;;;;;;9.20;8.40;;;;;;;23.98;47.19;95219.66;5009687;28;20030;-72
2021/09/09 06:34:20;;;;;;;8.95;8.15;;;;;;;24.11;47.16;95216.16;5010712;28;20025;-73
2021/09/09 06:36:45;;;;;;;9.98;9.07;;;;;;;24.19;46.94;95216.91;5010080;28;20040;-72
2021/09/09 06:39:13;;;;;;;10.20;8.18;;;;;;;24.18;46.35;95203.72;5009636;28;20133;-73
2021/09/09 06:41:40;;;;;;;11.00;8.43;;;;;;;24.24;46.10;95215.75;5010107;28;20042;-71
2021/09/09 06:44:06;;;;;;;9.35;8.00;;;;;;;24.47;46.19;95218.09;5010110;28;20065;-72
2021/09/09 06:46:32;;;;;;;10.82;8.18;;;;;;;24.62;46.14;95222.34;5011551;28;20029;-72
2021/09/09 06:48:57;;;;;;;9.55;8.55;;;;;;;24.78;45.88;95221.91;5008997;28;20403;-72
2021/09/09 06:51:24;;;;;;;8.82;7.93;;;;;;;24.95;45.41;95229.22;5009760;28;20038;-72
2021/09/09 06:53:49;;;;;;;8.60;7.25;;;;;;;25.03;45.19;95225.31;5009664;28;20030;-70
2021/09/09 06:56:14;;;;;;;9.02;7.57;;;;;;;25.08;45.11;95219.50;5009736;28;20053;-70
2021/09/09 06:58:40;;;;;;;10.02;7.20;;;;;;;25.25;44.92;95226.03;5009929;28;20112;-68
2021/09/09 07:01:05;;;;;;;9.65;8.23;;;;;;;25.30;44.98;95233.78;4992958;28;20220;-72
2021/09/09 07:03:31;;;;;;;7.43;6.72;;;;;;;25.33;44.50;95226.75;5009877;28;20137;-73
2021/09/09 07:05:57;;;;;;;7.65;7.05;;;;;;;25.46;43.77;95227.88;5009770;28;20117;-72
2021/09/09 07:08:23;;;;;;;8.65;6.78;;;;;;;25.56;43.28;95242.59;4991549;28;20082;-73
2021/09/09 07:10:48;;;;;;;8.05;6.53;;;;;;;25.61;43.09;95242.19;5009326;28;20097;-72
2021/09/09 07:13:17;;;;;;;7.72;6.78;;;;;;;25.72;42.51;95239.38;4994047;28;20033;-73
2021/09/09 07:15:42;;;;;;;6.43;5.93;;;;;;;25.79;41.95;95239.34;5009503;28;20048;-72
2021/09/09 07:18:07;;;;;;;7.95;7.20;;;;;;;25.88;42.22;95245.13;5009059;28;20120;-72
2021/09/09 07:20:33;;;;;;;10.30;6.55;;;;;;;26.00;41.76;95241.97;4991332;28;20053;-72
2021/09/09 07:22:58;;;;;;;10.95;6.80;;;;;;;26.13;42.04;95244.97;5009194;28;20030;-73
2021/09/09 07:25:24;;;;;;;6.95;6.43;;;;;;;26.16;41.48;95236.75;4993813;28;20029;-71
2021/09/09 07:27:49;;;;;;;6.70;6.15;;;;;;;26.39;41.30;95255.25;4991626;28;20038;-71
2021/09/09 07:30:14;;;;;;;6.95;6.25;;;;;;;26.51;41.23;95256.72;4991141;28;20365;-71
2021/09/09 07:32:40;;;;;;;7.80;6.60;;;;;;;26.54;40.76;95242.28;5008675;28;20041;-71
2021/09/09 07:35:05;;;;;;;7.68;6.97;;;;;;;26.60;40.55;95245.34;5009051;28;20045;-71
2021/09/09 07:37:31;;;;;;;8.40;6.82;;;;;;;26.69;40.30;95240.19;4993818;28;20022;-71
2021/09/09 07:39:56;;;;;;;6.70;5.82;;;;;;;26.37;39.69;95251.41;5009060;28;20042;-70
2021/09/09 07:42:22;;;;;;;6.97;6.28;;;;;;;26.74;40.12;95250.66;5009260;28;20049;-70
2021/09/09 07:44:47;;;;;;;6.63;6.05;;;;;;;27.04;39.25;95260.09;4991297;28;20099;-71
2021/09/09 07:47:12;;;;;;;6.32;5.82;;;;;;;27.19;39.65;95262.28;4990529;28;20177;-71
2021/09/09 07:49:38;;;;;;;7.05;6.30;;;;;;;27.15;39.47;95252.59;4992974;28;20033;-70
2021/09/09 07:52:03;;;;;;;6.55;5.95;;;;;;;27.38;39.22;95252.72;5008927;28;20129;-71
2021/09/09 07:54:29;;;;;;;6.65;6.10;;;;;;;27.51;38.63;95252.91;4990896;28;20038;-69
2021/09/09 07:56:54;;;;;;;8.23;6.70;;;;;;;27.53;38.28;95244.31;4991157;28;20061;-70
2021/09/09 07:59:20;;;;;;;7.00;6.43;;;;;;;27.59;37.48;95253.59;5008321;28;20069;-71
2021/09/09 08:01:45;;;;;;;6.65;5.95;;;;;;;27.58;37.27;95258.28;4990688;28;20021;-71
2021/09/09 08:04:15;;;;;;;6.40;5.90;;;;;;;27.55;37.19;95258.34;5010437;28;20026;-71
2021/09/09 08:06:42;;;;;;;7.63;6.00;;;;;;;27.83;37.20;95263.44;5008603;28;20058;-71
2021/09/09 08:09:08;;;;;;;6.85;5.53;;;;;;;27.97;37.35;95263.22;5008142;28;20030;-71
2021/09/09 08:11:33;;;;;;;6.25;5.75;;;;;;;27.92;36.52;95254.72;5008526;28;20483;-70
2021/09/09 08:13:58;;;;;;;6.50;5.82;;;;;;;28.11;36.49;95266.94;5008648;28;20033;-70
2021/09/09 08:16:24;;;;;;;6.25;5.75;;;;;;;27.85;36.76;95252.88;5010062;28;20022;-71
2021/09/09 08:18:49;;;;;;;6.05;5.65;;;;;;;28.19;36.62;95269.13;5008111;28;20044;-70
2021/09/09 08:21:15;;;;;;;5.97;5.47;;;;;;;28.29;36.29;95267.41;4990792;28;20065;-71
2021/09/09 08:23:40;;;;;;;6.18;5.68;;;;;;;28.37;36.65;95273.59;5008392;28;20096;-71
2021/09/09 08:26:06;;;;;;;6.63;5.70;;;;;;;28.53;35.74;95267.47;5008491;28;20046;-71
2021/09/09 08:28:31;;;;;;;6.00;5.60;;;;;;;28.55;35.73;95267.81;4992578;28;20128;-71
2021/09/09 08:30:57;;;;;;;6.15;5.60;;;;;;;28.73;35.79;95273.75;5008302;28;20092;-71
2021/09/09 08:33:22;;;;;;;6.13;5.50;;;;;;;28.69;34.77;95278.50;5008161;28;20046;-71
2021/09/09 08:35:47;;;;;;;6.15;5.43;;;;;;;27.68;36.03;95276.50;5008138;28;20042;-71
2021/09/09 08:38:13;;;;;;;5.25;4.78;;;;;;;28.49;34.74;95270.25;5008424;28;20042;-72
2021/09/09 08:40:39;;;;;;;6.50;5.20;;;;;;;28.74;34.41;95280.78;4992300;28;20182;-71
2021/09/09 08:43:06;;;;;;;6.30;5.70;;;;;;;28.87;33.92;95289.13;4990686;28;20042;-71
2021/09/09 08:45:32;;;;;;;6.68;5.95;;;;;;;28.31;34.21;95277.97;5008739;28;20042;-71
2021/09/09 08:48:02;;;;;;;5.82;5.32;;;;;;;28.45;34.96;95286.72;4990031;28;20038;-72
2021/09/09 08:50:27;;;;;;;6.30;5.78;;;;;;;29.06;34.31;95285.69;4989911;28;20057;-70
2021/09/09 08:52:54;;;;;;;5.78;5.38;;;;;;;29.00;33.91;95277.19;5008172;28;20037;-71
2021/09/09 08:55:20;;;;;;;6.03;5.45;;;;;;;28.94;33.91;95283.56;5010064;28;20033;-70
2021/09/09 08:57:45;;;;;;;6.38;5.75;;;;;;;28.99;33.97;95288.56;5009259;28;20415;-71
2021/09/09 09:00:11;;;;;;;5.80;5.30;;;;;;;28.99;34.35;95285.81;5011745;28;20076;-72
2021/09/09 09:02:51;;;;;;;6.72;6.13;;;;;;;29.49;33.88;95296.59;5011458;28;20038;-71
2021/09/09 09:05:16;;;;;;;5.45;5.05;;;;;;;29.55;33.71;95299.63;5012077;28;20096;-71
2021/09/09 09:07:42;;;;;;;7.00;5.80;;;;;;;29.74;33.56;95285.13;5011893;28;20022;-72
2021/09/09 09:10:08;;;;;;;8.35;6.28;;;;;;;28.61;34.56;95293.50;4995458;28;20108;-71
2021/09/09 09:12:39;;;;;;;6.93;5.85;;;;;;;28.61;34.62;95296.25;5011647;28;20034;-72
2021/09/09 09:15:12;;;;;;;5.38;4.90;;;;;;;27.79;35.90;95306.44;5011731;28;20569;-71
2021/09/09 09:18:02;;;;;;;5.63;5.10;;;;;;;28.50;35.18;95305.41;5011107;28;20124;-71
2021/09/09 09:20:42;;;;;;;6.20;5.60;;;;;;;28.48;35.91;95302.31;5011211;28;20037;-71
2021/09/09 09:23:18;;;;;;;7.43;5.65;;;;;;;29.43;34.11;95300.22;5011638;28;20087;-72
2021/09/09 09:25:52;;;;;;;9.98;5.50;;;;;;;28.01;35.49;95301.47;4994024;28;20027;-73
2021/09/09 09:28:51;;;;;;;5.93;5.40;;;;;;;27.53;35.74;95294.25;5013736;28;20014;-72
2021/09/09 09:31:23;;;;;;;6.72;5.50;;;;;;;27.48;36.46;95300.16;4980449;28;20041;-71
2021/09/09 09:33:56;;;;;;;8.30;5.63;;;;;;;29.26;34.47;95294.69;5010949;28;20038;-70
2021/09/09 09:36:37;;;;;;;6.28;5.68;;;;;;;28.98;33.31;95296.00;4993619;28;20050;-71
2021/09/09 09:39:16;;;;;;;6.38;5.78;;;;;;;27.16;37.41;95295.88;4993526;28;20313;-72
2021/09/09 09:41:57;;;;;;;5.80;5.30;;;;;;;28.77;34.91;95285.41;4993653;28;20034;-71
2021/09/09 09:44:31;;;;;;;;;;;;;;;28.27;35.24;95304.59;5011841;28;20484;-72
2021/09/09 09:47:19;;;;;;;9.07;5.50;;;;;;;27.56;36.62;95298.91;5010694;28;19968;-71
2021/09/09 09:49:48;;;;;;;5.72;5.20;;;;;;;28.11;36.02;95303.25;5004539;28;20073;-72
2021/09/09 09:52:28;;;;;;;6.30;5.70;;;;;;;29.38;33.84;95287.03;5013236;28;20100;-69
2021/09/09 09:54:55;;;;;;;6.88;5.40;;;;;;;29.58;33.55;95298.78;5011213;28;20518;-72
2021/09/09 09:57:23;;;;;;;5.85;5.38;;;;;;;29.90;33.41;95298.09;5010770;28;20369;-71
2021/09/09 09:59:50;;;;;;;7.40;5.80;;;;;;;28.54;35.73;95288.16;5010734;28;20550;-72
2021/09/09 10:02:15;;;;;;;6.07;5.35;;;;;;;28.80;35.15;95289.28;5010702;28;20042;-71
2021/09/09 10:04:47;;;;;;;6.80;5.50;;;;;;;29.98;33.39;95287.72;4993571;28;20014;-67
2021/09/09 10:07:13;;;;;;;6.85;5.28;;;;;;;29.44;33.98;95293.56;5013103;28;20722;-71
2021/09/09 10:09:40;;;;;;;6.45;5.95;;;;;;;29.75;33.69;95289.41;5009929;28;20068;-72
2021/09/09 10:12:11;;;;;;;6.63;5.35;;;;;;;29.07;33.98;95297.41;5010784;28;20068;-72
2021/09/09 10:14:49;;;;;;;6.15;5.57;;;;;;;28.90;34.96;95302.78;5010846;28;20034;-71
2021/09/09 10:17:18;;;;;;;6.10;5.60;;;;;;;30.04;33.71;95288.75;5010254;28;20061;-71
2021/09/09 10:19:43;;;;;;;5.85;5.43;;;;;;;30.37;33.30;95289.59;5010028;28;20026;-72
2021/09/09 10:22:12;;;;;;;5.72;5.22;;;;;;;29.70;34.26;95286.41;4994800;28;20022;-72
2021/09/09 10:24:40;;;;;;;5.95;5.45;;;;;;;29.25;34.64;95287.66;5010518;28;20038;-72
2021/09/09 10:27:32;;;;;;;6.57;6.07;;;;;;;29.29;35.45;95292.31;5010421;28;20511;-72
2021/09/09 10:30:05;;;;;;;6.45;5.80;;;;;;;28.33;36.57;95294.72;5010092;28;20037;-72
2021/09/09 10:32:33;;;;;;;6.43;5.90;;;;;;;28.83;35.82;95289.22;5010382;28;20640;-72
2021/09/09 10:37:47;;;;;;;7.97;6.00;;;;;;;28.28;36.54;95285.03;5010459;28;20026;-73
2021/09/09 10:40:27;;;;;;;7.20;5.78;;;;;;;28.72;34.96;95289.41;5012051;28;20376;-72
2021/09/09 10:42:53;;;;;;;5.50;5.10;;;;;;;29.39;34.56;95281.13;5010049;28;20064;-72
2021/09/09 10:45:33;;;;;;;6.63;5.82;;;;;;;29.42;34.12;95283.00;5010507;28;20147;-72
2021/09/09 10:47:58;;;;;;;8.70;5.75;;;;;;;28.57;35.55;95290.06;5009781;28;20451;-72
2021/09/09 10:50:26;;;;;;;6.85;5.75;;;;;;;28.76;35.90;95273.66;5009706;28;20049;-73
2021/09/09 10:53:00;;;;;;;6.15;5.55;;;;;;;29.25;35.65;95278.69;5010117;28;20061;-72
2021/09/09 10:55:28;;;;;;;6.80;5.80;;;;;;;29.41;34.15;95281.47;5012087;28;20025;-69
2021/09/09 10:58:12;;;;;;;5.95;5.53;;;;;;;28.96;35.08;95281.19;5009628;28;20038;-73
2021/09/09 11:01:02;;;;;;;5.95;5.40;;;;;;;29.12;34.70;95277.75;5009475;28;20037;-72
2021/09/09 11:03:48;;;;;;;7.32;5.72;;;;;;;29.33;34.94;95269.13;5009162;28;20540;-73
2021/09/09 11:06:24;;;;;;;10.00;5.85;;;;;;;29.42;35.39;95274.78;5009556;28;20500;-73
2021/09/09 11:08:58;;;;;;;6.65;6.15;;;;;;;29.03;34.79;95263.88;5008965;28;20077;-73
2021/09/09 11:11:29;;;;;;;6.20;5.47;;;;;;;28.92;34.49;95275.75;5009374;28;20088;-72
2021/09/09 11:13:59;;;;;;;6.18;5.57;;;;;;;28.44;34.95;95274.22;5009560;28;20030;-73
2021/09/09 11:16:26;;;;;;;10.50;6.00;;;;;;;28.74;35.10;95270.59;5011392;28;20038;-72
2021/09/09 11:18:52;;;;;;;8.90;5.90;;;;;;;29.67;34.34;95268.81;5008340;28;20049;-72
2021/09/09 11:21:19;;;;;;;6.20;5.63;;;;;;;29.62;34.10;95265.81;5008606;28;20124;-72
2021/09/09 11:23:47;;;;;;;5.60;5.10;;;;;;;29.92;33.53;95262.78;5009163;28;20566;-72
2021/09/09 11:26:20;;;;;;;5.65;5.15;;;;;;;30.30;32.80;95262.31;5009422;28;20084;-72